Chaplin, CT (06235)

3:09 AM EDT on June 03, 2015 (GMT -0400)
KCTEASTF2 | | Change Station
CLOSE
Current Station
Personal Weather Station
Location: Eastford, CT
Elevation: 500 ft
Nearby Weather Stations

Elev 500 ft 41.84 °N, 72.10 °W | Updated 8 minutes ago

Overcast
Overcast
46.7 °F
Feels Like 47 °F
N
0.0
Wind Variable Wind from East
Gusts 0.0 mph

Today
High -- | Low -- °F
--% Chance of Precip.
Yesterday
High -- | Low -- °F
Precip. -- in
5:15 AM 8:18 PM
Full, 100% visible
Pressure 30.20 in
Visibility 10.0 miles
Clouds Overcast 800 ft
Windchill 47 °F
Dew Point 45 °F
Humidity 93%
Rainfall 0.00 in
Snow Depth Not available.
UV 0 out of 12
Pollen .20 out of 12
Air Quality Not available.
Flu Activity Local Activity
METAR KIJD 030652Z AUTO 04006KT 10SM OVC008 09/07 A3019 RMK AO2 SLP225 T00890072

More Conditions Fewer Conditions

Pressure 30.20 in
Visibility 10.0 miles
Clouds Overcast 800 ft
Windchill 47 °F
Dew Point 45 °F
Humidity 93%
Rainfall 0.00 in
Snow Depth Not available.
UV 0 out of 12
Pollen .20 out of 12
Air Quality Not available.
Flu Activity Local Activity
METAR KIJD 030652Z AUTO 04006KT 10SM OVC008 09/07 A3019 RMK AO2 SLP225 T00890072

More Conditions Fewer Conditions

10-Day Weather Forecast

×

Almanac

Astronomy

Jun. 03, 2015 Rise Set
Actual Time
Civil Twilight
Nautical Twilight
Astronomical Twilight
Moon
Length of Visible Light
Length of Day
Tomorrow will be .
, % of the Moon is Illuminated

Today's Extremes

State Highs State Lows

Community

WunderPhotos

Upload Photos

1,826,185 photos uploaded!

WunderBlogs® & News

Nearby

Air Quality

  Air Quality AQ Index Pollutant
Not available.

Snow Depth

Station Depth Elevation

Earthquake Activity

City Distance Mag. Time & Date
Minimum magnitude displayed is 2.5.

Coastal Water Temperatures

Place Temperature

Stations

Nearby Weather Stations

Station Location Temp. Windchill Dew Point Humidity Wind Precip. Elev Updated Type